createdAt,value
2018-04-23T00:00:34.112Z,100046.30
2018-04-23T00:01:41.297Z,100044.45
2018-04-23T00:02:49.763Z,100045.64
2018-04-23T00:03:56.067Z,100057.81
2018-04-23T00:05:02.300Z,100059.91
2018-04-23T00:06:08.526Z,100048.61
2018-04-23T00:07:14.754Z,100040.28
2018-04-23T00:08:22.002Z,100048.13
2018-04-23T00:09:28.271Z,100051.53
2018-04-23T00:10:37.172Z,100053.70
2018-04-23T00:11:43.463Z,100050.79
2018-04-23T00:12:49.688Z,100048.28
2018-04-23T00:13:55.974Z,100052.09
2018-04-23T00:15:02.707Z,100050.63
2018-04-23T00:16:09.019Z,100061.11
2018-04-23T00:17:16.678Z,100057.50
2018-04-23T00:18:24.311Z,100049.56
2018-04-23T00:19:30.603Z,100055.99
2018-04-23T00:20:36.920Z,100047.64
2018-04-23T00:21:43.112Z,100041.83
2018-04-23T00:22:49.858Z,100047.51
2018-04-23T00:23:56.041Z,100047.25
2018-04-23T00:25:02.261Z,100058.31
2018-04-23T00:26:08.210Z,100057.31
2018-04-23T00:27:14.470Z,100051.97
2018-04-23T00:28:21.455Z,100052.02
2018-04-23T00:29:27.676Z,100051.47
2018-04-23T00:30:34.483Z,100049.92
2018-04-23T00:31:40.751Z,100052.28
2018-04-23T00:32:47.407Z,100052.09
2018-04-23T00:33:54.988Z,100052.31
2018-04-23T00:35:01.396Z,100052.19
2018-04-23T00:36:07.639Z,100054.73
2018-04-23T00:37:13.850Z,100053.02
2018-04-23T00:38:20.097Z,100056.44
2018-04-23T00:39:26.358Z,100057.80
2018-04-23T00:40:32.559Z,100054.50
2018-04-23T00:41:38.798Z,100049.17
2018-04-23T00:42:45.635Z,100053.30
2018-04-23T00:43:51.876Z,100054.08
2018-04-23T00:44:57.841Z,100053.55
2018-04-23T00:46:04.142Z,100053.22
2018-04-23T00:47:23.686Z,100056.36
2018-04-23T00:48:34.379Z,100049.59
2018-04-23T00:49:40.626Z,100044.13
2018-04-23T00:50:46.887Z,100050.02
2018-04-23T00:51:53.078Z,100053.07
2018-04-23T00:53:10.232Z,100050.47
2018-04-23T00:54:16.304Z,100045.15
2018-04-23T00:55:22.567Z,100048.02
2018-04-23T00:56:28.835Z,100041.25
2018-04-23T00:57:35.530Z,100044.03
2018-04-23T00:58:42.484Z,100049.30
2018-04-23T00:59:48.753Z,100047.47
2018-04-23T01:00:54.629Z,100047.57
2018-04-23T01:02:00.870Z,100048.62
2018-04-23T01:03:07.872Z,100053.09
2018-04-23T01:04:14.123Z,100055.22
2018-04-23T01:05:20.379Z,100054.47
2018-04-23T01:06:26.318Z,100052.87
2018-04-23T01:07:32.655Z,100061.59
2018-04-23T01:08:38.957Z,100061.79
2018-04-23T01:09:46.058Z,100060.39
2018-04-23T01:10:52.389Z,100064.49
2018-04-23T01:11:58.133Z,100060.59
2018-04-23T01:13:04.388Z,100066.66
2018-04-23T01:14:10.431Z,100065.00
2018-04-23T01:15:16.460Z,100056.61
2018-04-23T01:16:22.730Z,100061.98
2018-04-23T01:17:29.024Z,100060.69
2018-04-23T01:18:35.262Z,100060.87
2018-04-23T01:19:44.274Z,100061.37
2018-04-23T01:20:50.715Z,100058.22
2018-04-23T01:21:56.918Z,100057.59
2018-04-23T01:23:07.240Z,100056.97
2018-04-23T01:24:13.438Z,100061.97
2018-04-23T01:25:20.176Z,100062.98
2018-04-23T01:26:26.395Z,100055.66
2018-04-23T01:27:32.545Z,100061.16
2018-04-23T01:28:38.823Z,100062.39
2018-04-23T01:29:44.776Z,100057.63
2018-04-23T01:30:51.759Z,100057.41
2018-04-23T01:31:58.023Z,100054.09
2018-04-23T01:33:04.298Z,100052.31
2018-04-23T01:34:11.193Z,100052.68
2018-04-23T01:35:22.488Z,100054.40
2018-04-23T01:36:28.830Z,100054.29
2018-04-23T01:37:35.420Z,100057.91
2018-04-23T01:38:41.676Z,100055.53
2018-04-23T01:39:47.911Z,100053.70
2018-04-23T01:40:54.258Z,100056.91
2018-04-23T01:42:00.438Z,100053.46
2018-04-23T01:43:06.401Z,100053.00
2018-04-23T01:44:12.704Z,100050.81
2018-04-23T01:45:19.230Z,100053.26
2018-04-23T01:46:25.391Z,100056.80
2018-04-23T01:47:31.747Z,100058.59
2018-04-23T01:48:38.519Z,100057.27
2018-04-23T01:49:44.726Z,100061.81
2018-04-23T01:50:52.142Z,100060.27
2018-04-23T01:51:59.207Z,100065.73
2018-04-23T01:53:05.435Z,100064.25
2018-04-23T01:54:11.675Z,100066.59
2018-04-23T01:55:17.961Z,100068.55
2018-04-23T01:56:24.187Z,100062.66
2018-04-23T01:57:31.412Z,100065.41
2018-04-23T01:58:37.711Z,100059.66
2018-04-23T01:59:43.926Z,100067.94
2018-04-23T02:00:50.155Z,100072.25
2018-04-23T02:01:56.415Z,100063.73
2018-04-23T02:03:02.415Z,100072.09
2018-04-23T02:04:08.357Z,100066.69
2018-04-23T02:05:14.674Z,100065.41
2018-04-23T02:06:23.073Z,100069.59
2018-04-23T02:07:30.441Z,100063.94
2018-04-23T02:08:36.708Z,100068.15
2018-04-23T02:09:43.628Z,100073.62
2018-04-23T02:10:49.899Z,100069.02
2018-04-23T02:11:56.127Z,100064.92
2018-04-23T02:13:02.387Z,100071.66
2018-04-23T02:14:08.660Z,100069.95
2018-04-23T02:15:14.553Z,100070.38
2018-04-23T02:16:20.884Z,100064.72
2018-04-23T02:17:27.806Z,100064.75
2018-04-23T02:18:34.416Z,100066.20
2018-04-23T02:19:41.813Z,100060.76
2018-04-23T02:20:48.094Z,100062.49
2018-04-23T02:21:54.347Z,100071.28
2018-04-23T02:23:00.580Z,100058.31
2018-04-23T02:24:06.915Z,100058.23
2018-04-23T02:25:13.669Z,100060.66
2018-04-23T02:26:20.937Z,100058.79
2018-04-23T02:27:27.219Z,100055.16
2018-04-23T02:28:33.551Z,100057.96
2018-04-23T02:29:39.800Z,100061.42
2018-04-23T02:30:46.072Z,100062.73
2018-04-23T02:31:52.287Z,100060.59
2018-04-23T02:33:03.342Z,100062.77
2018-04-23T02:34:09.655Z,100064.73
2018-04-23T02:35:16.535Z,100060.40
2018-04-23T02:36:22.770Z,100058.99
2018-04-23T02:37:30.847Z,100056.70
2018-04-23T02:38:41.117Z,100059.30
2018-04-23T02:39:48.301Z,100058.81
2018-04-23T02:40:54.682Z,100054.95
2018-04-23T02:42:01.001Z,100060.98
2018-04-23T02:43:07.282Z,100059.55
2018-04-23T02:44:13.517Z,100057.23
2018-04-23T02:45:19.816Z,100063.80
2018-04-23T02:46:26.122Z,100059.08
2018-04-23T02:47:32.447Z,100056.51
2018-04-23T02:48:38.637Z,100062.58
2018-04-23T02:49:44.969Z,100064.97
2018-04-23T02:50:50.903Z,100066.17
2018-04-23T02:51:57.170Z,100062.56
2018-04-23T02:53:03.476Z,100064.36
2018-04-23T02:54:09.989Z,100061.22
2018-04-23T02:55:16.176Z,100053.84
2018-04-23T02:56:22.425Z,100051.48
2018-04-23T02:57:28.606Z,100049.12
2018-04-23T02:58:34.818Z,100051.22
2018-04-23T02:59:41.160Z,100051.91
2018-04-23T03:00:47.448Z,100047.61
2018-04-23T03:01:53.689Z,100051.11
2018-04-23T03:03:00.007Z,100056.89
2018-04-23T03:04:06.283Z,100054.17
2018-04-23T03:05:12.523Z,100050.42
2018-04-23T03:06:18.800Z,100049.95
2018-04-23T03:07:25.074Z,100048.06
2018-04-23T03:08:31.828Z,100049.20
2018-04-23T03:09:38.183Z,100049.32
2018-04-23T03:10:44.450Z,100044.30
2018-04-23T03:11:51.417Z,100049.63
2018-04-23T03:12:57.697Z,100049.36
2018-04-23T03:14:05.178Z,100038.82
2018-04-23T03:15:11.687Z,100045.77
2018-04-23T03:16:17.723Z,100040.30
2018-04-23T03:17:24.272Z,100040.91
2018-04-23T03:18:30.250Z,100043.97
2018-04-23T03:19:36.631Z,100042.43
2018-04-23T03:20:43.114Z,100040.99
2018-04-23T03:21:49.302Z,100036.84
2018-04-23T03:22:55.511Z,100042.36
2018-04-23T03:24:01.715Z,100038.52
2018-04-23T03:25:07.941Z,100039.38
2018-04-23T03:26:14.092Z,100038.16
2018-04-23T03:27:20.564Z,100035.93
2018-04-23T03:28:26.770Z,100032.17
2018-04-23T03:29:34.307Z,100027.78
2018-04-23T03:30:41.520Z,100028.03
2018-04-23T03:31:47.771Z,100027.09
2018-04-23T03:32:54.058Z,100030.59
2018-04-23T03:34:00.278Z,100030.43
2018-04-23T03:35:06.491Z,100033.43
2018-04-23T03:36:12.794Z,100031.52
2018-04-23T03:37:18.982Z,100032.30
2018-04-23T03:38:25.206Z,100033.06
2018-04-23T03:39:31.431Z,100030.37
2018-04-23T03:40:37.646Z,100029.48
2018-04-23T03:41:43.685Z,100028.63
2018-04-23T03:42:49.724Z,100021.51
2018-04-23T03:43:56.747Z,100024.79
2018-04-23T03:45:03.697Z,100022.36
2018-04-23T03:46:12.933Z,100017.38
2018-04-23T03:47:19.288Z,100020.82
2018-04-23T03:48:25.528Z,100022.66
2018-04-23T03:49:33.717Z,100022.53
2018-04-23T03:50:40.707Z,100032.55
2018-04-23T03:51:46.972Z,100030.37
2018-04-23T03:52:53.411Z,100027.56
2018-04-23T03:53:59.634Z,100031.69
2018-04-23T03:55:05.983Z,100032.63
2018-04-23T03:56:12.423Z,100027.52
2018-04-23T03:57:19.191Z,100032.38
2018-04-23T03:58:25.401Z,100032.34
2018-04-23T03:59:31.716Z,100031.32
2018-04-23T04:00:38.150Z,100032.43
2018-04-23T04:01:44.465Z,100026.16
2018-04-23T04:02:50.726Z,100031.83
2018-04-23T04:03:56.989Z,100024.16
2018-04-23T04:05:03.288Z,100027.22
2018-04-23T04:06:09.539Z,100024.20
2018-04-23T04:07:15.540Z,100032.80
2018-04-23T04:08:21.790Z,100033.83
2018-04-23T04:09:28.002Z,100027.91
2018-04-23T04:10:34.209Z,100027.31
2018-04-23T04:11:40.095Z,100031.66
2018-04-23T04:12:57.178Z,100029.95
2018-04-23T04:14:14.200Z,100035.75
2018-04-23T04:15:31.346Z,100035.70
2018-04-23T04:16:48.420Z,100034.25
2018-04-23T04:19:44.917Z,100039.16
2018-04-23T04:20:51.212Z,100036.95
2018-04-23T04:21:57.550Z,100046.41
2018-04-23T04:23:03.780Z,100042.36
2018-04-23T04:24:10.514Z,100042.96
2018-04-23T04:25:17.638Z,100041.80
2018-04-23T04:26:24.741Z,100051.48
2018-04-23T04:27:31.406Z,100048.96
2018-04-23T04:28:38.262Z,100053.99
2018-04-23T04:29:45.247Z,100059.28
2018-04-23T04:30:51.621Z,100057.16
2018-04-23T04:32:00.399Z,100057.41
2018-04-23T04:33:07.367Z,100062.27
2018-04-23T04:34:13.664Z,100060.01
2018-04-23T04:35:19.871Z,100059.06
2018-04-23T04:36:26.157Z,100052.58
2018-04-23T04:37:32.650Z,100053.85
2018-04-23T04:38:41.508Z,100047.52
2018-04-23T04:39:47.676Z,100052.39
2018-04-23T04:40:53.935Z,100059.98
2018-04-23T04:42:00.338Z,100057.72
2018-04-23T04:43:06.310Z,100054.74
2018-04-23T04:44:15.224Z,100059.25
2018-04-23T04:45:23.796Z,100059.89
2018-04-23T04:46:30.083Z,100064.49
2018-04-23T04:47:37.620Z,100065.44
2018-04-23T04:48:43.783Z,100060.09
2018-04-23T04:49:50.037Z,100063.03
2018-04-23T04:50:56.369Z,100061.84
2018-04-23T04:52:02.657Z,100061.88
2018-04-23T04:53:08.838Z,100068.87
2018-04-23T04:54:15.071Z,100062.94
2018-04-23T04:55:21.880Z,100058.75
2018-04-23T04:56:28.156Z,100062.25
2018-04-23T04:57:34.667Z,100059.66
2018-04-23T04:58:41.791Z,100063.20
2018-04-23T04:59:49.634Z,100068.74
2018-04-23T05:00:56.453Z,100073.97
2018-04-23T05:02:02.742Z,100070.55
2018-04-23T05:03:10.480Z,100073.08
2018-04-23T05:04:18.209Z,100074.48
2018-04-23T05:05:24.471Z,100076.22
2018-04-23T05:06:30.739Z,100081.00
2018-04-23T05:07:36.964Z,100080.73
2018-04-23T05:08:43.243Z,100083.60
2018-04-23T05:09:49.478Z,100090.22
2018-04-23T05:10:55.692Z,100088.85
2018-04-23T05:12:02.005Z,100091.55
2018-04-23T05:13:08.184Z,100084.55
2018-04-23T05:14:14.422Z,100089.41
2018-04-23T05:15:20.633Z,100081.51
2018-04-23T05:16:26.977Z,100083.38
2018-04-23T05:17:33.258Z,100075.11
2018-04-23T05:18:39.698Z,100065.78
2018-04-23T05:19:47.122Z,100055.27
2018-04-23T05:20:53.391Z,100046.27
2018-04-23T05:21:59.634Z,100034.69
2018-04-23T05:23:05.942Z,100029.48
2018-04-23T05:24:12.236Z,100033.69
2018-04-23T05:25:19.181Z,100036.45
2018-04-23T05:26:25.515Z,100034.75
2018-04-23T05:27:31.812Z,100044.84
2018-04-23T05:28:38.095Z,100051.41
2018-04-23T05:29:44.435Z,100055.44
2018-04-23T05:30:50.740Z,100055.86
2018-04-23T05:31:57.083Z,100051.82
2018-04-23T05:33:03.386Z,100054.70
2018-04-23T05:34:09.680Z,100053.67
2018-04-23T05:35:15.995Z,100059.97
2018-04-23T05:36:22.449Z,100061.23
2018-04-23T05:37:28.914Z,100059.69
2018-04-23T05:38:35.371Z,100063.28
2018-04-23T05:39:41.626Z,100066.88
2018-04-23T05:40:47.836Z,100063.80
2018-04-23T05:41:54.347Z,100066.42
2018-04-23T05:43:00.579Z,100065.48
2018-04-23T05:44:06.908Z,100068.90
2018-04-23T05:45:13.209Z,100073.05
2018-04-23T05:46:19.535Z,100070.27
2018-04-23T05:47:26.485Z,100070.28
2018-04-23T05:48:32.422Z,100072.70
2018-04-23T05:49:38.648Z,100086.84
2018-04-23T05:50:45.195Z,100090.91
2018-04-23T05:51:52.037Z,100111.40
2018-04-23T05:52:58.341Z,100126.91
2018-04-23T05:54:04.583Z,100139.67
2018-04-23T05:55:13.086Z,100155.34
2018-04-23T05:56:19.310Z,100161.23
2018-04-23T05:57:25.627Z,100159.73
2018-04-23T05:58:31.871Z,100162.67
2018-04-23T05:59:38.166Z,100167.84
2018-04-23T06:00:44.733Z,100167.03
2018-04-23T06:01:51.078Z,100169.77
2018-04-23T06:02:58.366Z,100169.12
2018-04-23T06:04:04.226Z,100172.65
2018-04-23T06:05:10.523Z,100185.80
2018-04-23T06:06:16.930Z,100188.29
2018-04-23T06:07:23.795Z,100194.53
2018-04-23T06:08:30.071Z,100181.88
2018-04-23T06:09:36.974Z,100175.63
2018-04-23T06:10:44.117Z,100179.49
2018-04-23T06:11:51.669Z,100178.23
2018-04-23T06:12:57.956Z,100180.36
2018-04-23T06:14:04.235Z,100177.98
2018-04-23T06:15:10.486Z,100171.61
2018-04-23T06:16:16.793Z,100166.91
2018-04-23T06:17:23.052Z,100172.73
2018-04-23T06:18:29.340Z,100176.97
2018-04-23T06:19:36.553Z,100179.93
2018-04-23T06:20:42.838Z,100181.05
2018-04-23T06:21:49.070Z,100176.47
2018-04-23T06:22:57.199Z,100177.72
2018-04-23T06:24:06.940Z,100174.21
2018-04-23T06:25:13.225Z,100178.52
2018-04-23T06:26:21.720Z,100174.00
2018-04-23T06:27:29.544Z,100176.28
2018-04-23T06:28:35.838Z,100175.08
2018-04-23T06:29:42.282Z,100170.84
2018-04-23T06:30:48.338Z,100176.09
2018-04-23T06:31:54.698Z,100172.75
2018-04-23T06:33:01.034Z,100177.50
2018-04-23T06:34:07.309Z,100175.61
2018-04-23T06:35:13.621Z,100176.77
2018-04-23T06:36:19.940Z,100185.77
2018-04-23T06:37:26.855Z,100185.50
2018-04-23T06:38:33.143Z,100189.84
2018-04-23T06:39:39.550Z,100186.81
2018-04-23T06:40:45.763Z,100180.36
2018-04-23T06:41:52.863Z,100176.03
2018-04-23T06:42:59.863Z,100172.48
2018-04-23T06:44:14.187Z,100164.80
2018-04-23T06:45:20.359Z,100165.88
2018-04-23T06:46:26.675Z,100163.75
2018-04-23T06:47:33.392Z,100172.83
2018-04-23T06:48:39.696Z,100176.70
2018-04-23T06:49:45.979Z,100171.41
2018-04-23T06:50:52.189Z,100176.05
2018-04-23T06:51:58.445Z,100177.70
2018-04-23T06:53:04.751Z,100173.59
2018-04-23T06:54:11.046Z,100170.96
2018-04-23T06:55:17.329Z,100171.91
2018-04-23T06:56:23.331Z,100172.20
2018-04-23T06:57:32.014Z,100168.66
2018-04-23T06:58:39.100Z,100170.36
2018-04-23T06:59:45.131Z,100171.70
2018-04-23T07:00:53.759Z,100178.45
2018-04-23T07:01:59.786Z,100181.83
2018-04-23T07:03:06.077Z,100188.03
2018-04-23T07:04:11.997Z,100189.31
2018-04-23T07:05:18.256Z,100184.39
2018-04-23T07:06:25.437Z,100186.70
2018-04-23T07:07:31.870Z,100183.28
2018-04-23T07:08:38.101Z,100187.89
2018-04-23T07:09:44.306Z,100189.00
2018-04-23T07:10:50.510Z,100177.30
2018-04-23T07:11:57.377Z,100177.98
2018-04-23T07:13:05.114Z,100179.93
2018-04-23T07:14:12.603Z,100179.37
2018-04-23T07:15:18.825Z,100181.84
2018-04-23T07:16:25.061Z,100179.59
2018-04-23T07:17:31.090Z,100169.51
2018-04-23T07:18:37.399Z,100165.92
2018-04-23T07:19:48.448Z,100165.75
2018-04-23T07:20:54.970Z,100159.53
2018-04-23T07:22:01.453Z,100166.77
2018-04-23T07:23:07.545Z,100172.28
2018-04-23T07:24:13.815Z,100173.44
2018-04-23T07:25:20.042Z,100171.72
2018-04-23T07:26:26.242Z,100172.28
2018-04-23T07:27:32.488Z,100170.19
2018-04-23T07:28:41.582Z,100173.59
2018-04-23T07:29:48.747Z,100170.98
2018-04-23T07:30:54.994Z,100165.39
2018-04-23T07:32:01.183Z,100162.34
2018-04-23T07:33:07.413Z,100162.24
2018-04-23T07:34:14.374Z,100161.14
2018-04-23T07:35:20.743Z,100159.77
2018-04-23T07:36:27.820Z,100160.11
2018-04-23T07:37:34.841Z,100164.66
2018-04-23T07:38:41.127Z,100167.78
2018-04-23T07:39:47.422Z,100167.02
2018-04-23T07:40:53.637Z,100168.48
2018-04-23T07:42:00.026Z,100170.61
2018-04-23T07:43:06.304Z,100179.84
2018-04-23T07:44:13.341Z,100179.61
2018-04-23T07:45:21.042Z,100180.52
2018-04-23T07:46:27.498Z,100183.89
2018-04-23T07:47:34.314Z,100187.31
2018-04-23T07:48:40.160Z,100188.59
2018-04-23T07:49:46.388Z,100187.94
2018-04-23T07:50:52.575Z,100189.14
2018-04-23T07:51:58.819Z,100181.39
2018-04-23T07:53:05.214Z,100189.54
2018-04-23T07:54:11.465Z,100190.16
2018-04-23T07:55:17.742Z,100192.77
2018-04-23T07:56:24.008Z,100195.84
2018-04-23T07:57:30.256Z,100197.59
2018-04-23T07:58:36.483Z,100204.02
2018-04-23T07:59:42.819Z,100203.44
2018-04-23T08:00:49.089Z,100204.62
2018-04-23T08:01:56.270Z,100212.54
2018-04-23T08:03:02.566Z,100219.77
2018-04-23T08:04:08.882Z,100215.31
2018-04-23T08:05:15.136Z,100218.35
2018-04-23T08:06:21.365Z,100220.02
2018-04-23T08:07:27.622Z,100212.45
2018-04-23T08:08:34.495Z,100211.39
2018-04-23T08:09:40.734Z,100218.83
2018-04-23T08:10:47.028Z,100221.97
2018-04-23T08:11:53.334Z,100216.05
2018-04-23T08:12:59.655Z,100212.27
2018-04-23T08:14:05.462Z,100210.95
2018-04-23T08:15:11.850Z,100206.47
2018-04-23T08:16:18.145Z,100207.59
2018-04-23T08:17:24.628Z,100198.66
2018-04-23T08:18:30.837Z,100201.21
2018-04-23T08:19:37.108Z,100201.66
2018-04-23T08:20:45.965Z,100209.61
2018-04-23T08:21:51.795Z,100207.78
2018-04-23T08:22:58.127Z,100209.91
2018-04-23T08:24:04.092Z,100208.44
2018-04-23T08:25:10.302Z,100207.58
2018-04-23T08:26:16.524Z,100202.75
2018-04-23T08:27:22.793Z,100205.47
2018-04-23T08:28:29.083Z,100210.12
2018-04-23T08:29:36.433Z,100210.16
2018-04-23T08:30:43.412Z,100208.31
2018-04-23T08:31:49.614Z,100205.20
2018-04-23T08:32:55.959Z,100212.48
2018-04-23T08:34:02.271Z,100210.88
2018-04-23T08:35:08.547Z,100211.80
2018-04-23T08:36:17.743Z,100211.61
2018-04-23T08:37:25.894Z,100210.36
2018-04-23T08:38:31.916Z,100205.67
2018-04-23T08:39:37.881Z,100206.48
2018-04-23T08:40:44.107Z,100201.78
2018-04-23T08:41:51.044Z,100207.20
2018-04-23T08:42:57.381Z,100207.33
2018-04-23T08:44:03.785Z,100201.06
2018-04-23T08:45:10.055Z,100200.84
2018-04-23T08:46:15.945Z,100197.58
2018-04-23T08:47:22.189Z,100206.34
2018-04-23T08:48:28.532Z,100204.88
2018-04-23T08:49:34.807Z,100212.30
2018-04-23T08:50:44.097Z,100205.05
2018-04-23T08:51:53.351Z,100211.69
2018-04-23T08:53:01.484Z,100209.47
2018-04-23T08:54:07.759Z,100215.48
2018-04-23T08:55:13.155Z,100215.09
2018-04-23T08:56:19.420Z,100210.70
2018-04-23T08:57:25.649Z,100214.49
2018-04-23T08:58:32.220Z,100214.39
2018-04-23T08:59:38.472Z,100208.71
2018-04-23T09:00:44.792Z,100206.62
2018-04-23T09:01:51.356Z,100206.77
2018-04-23T09:02:57.622Z,100207.63
2018-04-23T09:04:03.954Z,100209.27
2018-04-23T09:05:10.267Z,100205.20
2018-04-23T09:06:16.545Z,100208.95
2018-04-23T09:07:24.630Z,100207.95
2018-04-23T09:08:32.218Z,100211.55
2018-04-23T09:09:38.468Z,100210.17
2018-04-23T09:10:51.428Z,100216.63
2018-04-23T09:11:58.243Z,100215.39
2018-04-23T09:13:04.578Z,100221.13
2018-04-23T09:14:10.904Z,100216.44
2018-04-23T09:15:17.173Z,100223.59
2018-04-23T09:16:23.470Z,100218.18
2018-04-23T09:17:29.711Z,100222.16
2018-04-23T09:18:36.032Z,100222.64
2018-04-23T09:19:42.334Z,100224.82
2018-04-23T09:20:48.584Z,100230.13
2018-04-23T09:21:55.906Z,100231.30
2018-04-23T09:23:03.319Z,100223.66
2018-04-23T09:24:12.277Z,100222.89
2018-04-23T09:25:18.590Z,100222.72
2018-04-23T09:26:25.804Z,100226.45
2018-04-23T09:27:32.027Z,100224.45
2018-04-23T09:28:38.346Z,100228.41
2018-04-23T09:29:44.638Z,100228.91
2018-04-23T09:30:50.879Z,100235.20
2018-04-23T09:31:58.295Z,100223.63
2018-04-23T09:33:04.613Z,100219.99
2018-04-23T09:34:10.905Z,100224.30
2018-04-23T09:35:17.162Z,100218.34
2018-04-23T09:36:24.014Z,100220.69
2018-04-23T09:37:31.407Z,100214.35
2018-04-23T09:38:41.836Z,100209.50
2018-04-23T09:39:50.932Z,100207.08
2018-04-23T09:40:59.495Z,100199.00
2018-04-23T09:42:07.554Z,100199.31
2018-04-23T09:43:14.885Z,100198.15
2018-04-23T09:44:22.378Z,100205.05
2018-04-23T09:45:30.062Z,100203.78
2018-04-23T09:46:37.731Z,100204.78
2018-04-23T09:47:44.836Z,100206.08
2018-04-23T09:48:52.031Z,100202.03
2018-04-23T09:49:59.726Z,100201.53
2018-04-23T09:51:06.928Z,100199.15
2018-04-23T09:52:15.099Z,100201.30
2018-04-23T09:53:23.052Z,100203.14
2018-04-23T09:54:30.793Z,100199.09
2018-04-23T09:55:37.711Z,100200.98
2018-04-23T09:56:46.077Z,100203.95
2018-04-23T09:57:54.274Z,100208.77
2018-04-23T09:59:00.390Z,100204.89
2018-04-23T10:00:08.080Z,100202.41
2018-04-23T10:01:21.994Z,100208.94
2018-04-23T10:02:29.138Z,100209.56
2018-04-23T10:03:41.433Z,100204.95
2018-04-23T10:04:48.770Z,100208.63
2018-04-23T10:05:55.832Z,100201.14
2018-04-23T10:07:02.846Z,100203.54
2018-04-23T10:08:10.044Z,100205.26
2018-04-23T10:09:17.004Z,100212.68
2018-04-23T10:10:24.185Z,100205.53
2018-04-23T10:11:32.043Z,100204.05
2018-04-23T10:12:39.240Z,100200.52
2018-04-23T10:13:46.384Z,100203.42
2018-04-23T10:14:53.209Z,100205.17
2018-04-23T10:16:00.889Z,100203.99
2018-04-23T10:17:07.346Z,100200.00
2018-04-23T10:18:13.925Z,100198.34
2018-04-23T10:19:21.150Z,100201.81
2018-04-23T10:20:28.307Z,100199.83
2018-04-23T10:21:34.547Z,100203.66
2018-04-23T10:22:41.744Z,100201.12
2018-04-23T10:23:48.827Z,100201.95
2018-04-23T10:24:55.177Z,100197.22
2018-04-23T10:26:02.742Z,100193.50
2018-04-23T10:27:09.137Z,100194.03
2018-04-23T10:28:15.342Z,100196.80
2018-04-23T10:29:21.666Z,100195.68
2018-04-23T10:30:28.650Z,100199.30
2018-04-23T10:31:37.974Z,100192.75
2018-04-23T10:32:45.519Z,100193.92
2018-04-23T10:33:52.951Z,100197.07
2018-04-23T10:35:05.456Z,100195.09
2018-04-23T10:36:13.818Z,100195.67
2018-04-23T10:37:20.365Z,100191.48
2018-04-23T10:38:28.351Z,100195.40
2018-04-23T10:39:35.090Z,100194.47
2018-04-23T10:40:42.612Z,100196.64
2018-04-23T10:41:49.722Z,100195.67
2018-04-23T10:42:57.148Z,100189.37
2018-04-23T10:44:04.249Z,100197.76
2018-04-23T10:45:11.087Z,100193.88
2018-04-23T10:46:17.968Z,100197.20
2018-04-23T10:47:24.660Z,100194.81
2018-04-23T10:48:31.283Z,100196.58
2018-04-23T10:49:38.615Z,100198.40
2018-04-23T10:50:45.526Z,100193.82
2018-04-23T10:51:52.570Z,100196.34
2018-04-23T10:52:59.635Z,100199.05
2018-04-23T10:54:06.934Z,100206.52
2018-04-23T10:55:14.370Z,100208.03
2018-04-23T10:56:21.432Z,100201.77
2018-04-23T10:57:28.945Z,100201.91
2018-04-23T10:58:35.559Z,100202.04
2018-04-23T10:59:42.020Z,100203.47
2018-04-23T11:00:49.372Z,100206.83
2018-04-23T11:01:57.832Z,100198.98
2018-04-23T11:03:05.207Z,100204.25
2018-04-23T11:04:12.170Z,100204.41
2018-04-23T11:05:19.262Z,100198.59
2018-04-23T11:06:26.199Z,100197.92
2018-04-23T11:07:33.113Z,100194.89
2018-04-23T11:08:39.734Z,100200.55
2018-04-23T11:09:47.591Z,100201.13
2018-04-23T11:10:54.607Z,100202.41
2018-04-23T11:12:01.226Z,100196.22
2018-04-23T11:13:08.852Z,100192.62
2018-04-23T11:14:16.314Z,100192.80
2018-04-23T11:15:24.606Z,100196.34
2018-04-23T11:16:34.534Z,100195.80
2018-04-23T11:17:41.790Z,100190.83
2018-04-23T11:18:48.962Z,100188.59
2018-04-23T11:19:55.223Z,100189.66
2018-04-23T11:21:02.056Z,100196.64
2018-04-23T11:22:08.803Z,100191.12
2018-04-23T11:23:15.029Z,100186.52
2018-04-23T11:24:21.242Z,100190.52
2018-04-23T11:25:28.498Z,100189.19
2018-04-23T11:26:35.875Z,100197.94
2018-04-23T11:27:43.920Z,100199.41
2018-04-23T11:28:52.627Z,100205.22
2018-04-23T11:29:59.442Z,100206.19
2018-04-23T11:31:07.195Z,100194.65
2018-04-23T11:32:14.395Z,100194.89
2018-04-23T11:33:22.451Z,100194.71
2018-04-23T11:34:28.935Z,100197.41
2018-04-23T11:35:35.302Z,100199.86
2018-04-23T11:36:41.554Z,100197.98
2018-04-23T11:37:48.186Z,100193.47
2018-04-23T11:38:55.641Z,100184.64
2018-04-23T11:40:03.994Z,100189.92
2018-04-23T11:41:16.684Z,100196.98
2018-04-23T11:42:26.026Z,100198.71
2018-04-23T11:43:33.648Z,100198.77
2018-04-23T11:44:41.704Z,100187.20
2018-04-23T11:45:49.667Z,100193.17
2018-04-23T11:47:00.157Z,100191.52
2018-04-23T11:48:06.601Z,100194.67
2018-04-23T11:49:13.211Z,100194.84
2018-04-23T11:50:19.859Z,100195.51
2018-04-23T11:51:26.148Z,100187.16
2018-04-23T11:52:32.406Z,100192.88
2018-04-23T11:53:38.667Z,100181.39
2018-04-23T11:54:45.136Z,100181.64
2018-04-23T11:55:51.694Z,100179.77
2018-04-23T11:56:57.923Z,100179.64
2018-04-23T11:58:04.313Z,100180.20
2018-04-23T11:59:10.971Z,100178.95
2018-04-23T12:00:17.570Z,100175.53
2018-04-23T12:01:24.008Z,100176.87
2018-04-23T12:02:30.425Z,100180.06
2018-04-23T12:03:37.217Z,100174.02
2018-04-23T12:04:43.635Z,100170.11
2018-04-23T12:05:50.354Z,100172.25
2018-04-23T12:06:56.744Z,100162.02
2018-04-23T12:08:03.495Z,100160.27
2018-04-23T12:09:09.889Z,100158.87
2018-04-23T12:10:16.319Z,100155.64
2018-04-23T12:11:22.695Z,100156.69
2018-04-23T12:12:29.143Z,100157.17
2018-04-23T12:13:36.496Z,100162.16
2018-04-23T12:14:42.894Z,100171.77
2018-04-23T12:15:49.194Z,100171.22
2018-04-23T12:16:56.431Z,100176.69
2018-04-23T12:18:03.765Z,100174.72
2018-04-23T12:19:10.807Z,100172.55
2018-04-23T12:20:18.115Z,100172.22
2018-04-23T12:21:25.066Z,100175.41
2018-04-23T12:22:33.908Z,100174.14
2018-04-23T12:23:41.767Z,100164.96
2018-04-23T12:24:49.195Z,100167.51
2018-04-23T12:25:56.857Z,100168.59
2018-04-23T12:27:04.533Z,100175.50
2018-04-23T12:28:13.217Z,100172.05
2018-04-23T12:29:23.197Z,100169.02
2018-04-23T12:30:32.241Z,100168.33
2018-04-23T12:31:39.970Z,100176.44
2018-04-23T12:32:51.281Z,100174.24
2018-04-23T12:33:59.073Z,100171.44
2018-04-23T12:35:06.181Z,100165.10
2018-04-23T12:36:14.278Z,100167.02
2018-04-23T12:37:21.785Z,100165.47
2018-04-23T12:38:29.298Z,100169.16
2018-04-23T12:39:35.590Z,100166.66
2018-04-23T12:40:42.123Z,100163.51
2018-04-23T12:41:48.511Z,100166.06
2018-04-23T12:42:54.830Z,100166.92
2018-04-23T12:44:01.014Z,100159.16
2018-04-23T12:45:07.223Z,100161.01